Share

Archie, LA

Hardy-Anders-Adams County (KHEZ) Elev 272 ft | 31.62 °N, 91.30 °W | Change Station

Current weather conditions updated 10 minutes ago

Partly Cloudy
Partly Cloudy
66 °F
Feels Like 66 °F
N
9
Wind Variable Wind from SSE
Sunrise 6:32 AM
Sunset 7:40 PM
Moon Waning Gibbous

Today is forecast to be nearly the same temperature as yesterday. A few showers developing late tonight.

Pressure 30.12 in
Visibility 10.0 miles
Clouds Few 400 ft
Dew Point 61 °F
Humidity 83%
Rainfall 0.00 in
Snow Depth Not available.
UV 4 out of 16
Pollen 8.20 out of 12
Air Quality Not available.
Flu Activity Local Activity
METAR KHEZ 211435Z AUTO 16008KT 10SM FEW004 19/16 A3012 RMK AO1

More Conditions Fewer Conditions

Pressure 30.12 in
Visibility 10.0 miles
Clouds Few 400 ft
Dew Point 61 °F
Humidity 83%
Rainfall 0.00 in
Snow Depth Not available.
UV 4 out of 16
Pollen 8.20 out of 12
Air Quality Not available.
Flu Activity Local Activity
METAR KHEZ 211435Z AUTO 16008KT 10SM FEW004 19/16 A3012 RMK AO1

More Conditions Fewer Conditions

10-Day Weather Forecast

Almanac

Astronomy

Apr. 21, 2014 Rise Set
Actual Time 6:32 AM CDT 7:40 PM CDT
Civil Twilight 6:06 AM CDT 8:05 PM CDT
Nautical Twilight 5:36 AM CDT 8:35 PM CDT
Astronomical Twilight 5:05 AM CDT 9:06 PM CDT
Moon 1:05 AM CDT 12:03 PM CDT
Length of Visible Light 13h 58m
Length of Day
13h 08m
Tomorrow will be 1m 46s longer.
Waning Gibbous, 58% of the Moon is Illuminated
Today
Waning Gibbous
Apr 22
Last Quarter
Apr 29
New
May 6
First Quarter
May 14
Full

Today's Extremes

State Highs State Lows

Community

  • Bright Eyes
    Bright Eyes
  • Snowy Robin
    Snowy Robin
  • Spring Crocus
    Spring Crocus
  • Sun Pillar and Geese
    Sun Pillar and Geese
  • Showers on the Way
    Showers on the Way

WunderPhotos

Upload Photos

1,703,649 photos uploaded!

Nearby

Snow Depth

Station Depth Elevation
No new snow has been reported.

Coastal Water Temperatures

Place Temperature
No Stations Reporting

Earthquake Activity

City Distance Mag. Time & Date
No recent earthquake activity has been reported nearby.
Minimum magnitude displayed is 2.5.

Nearby Weather Stations

There are no personal weather stations in this area.

What do you think?

We're not finished. Please let us know what you like, what you don't like, and what you are still missing.